Accueil
METAR-TAF:

METAR-TAF

Aéroports :

Woensdrecht, Pays-Bas

latitude: 51-27N, longitude: 004-20E, altitude: 20 m

Observation

Le bulletin a été fait il y a 29 minutes, à 04:25 UTC
Vent 5 kt de nord/nord-est, variant entre nord et nord-est
Température 3°C
Humidité 93%
Pression 1029 hPa
Visibilité 10 km ou plus
Ciel couvert à une hauteur de 36000 ft

METAR: EHWO 240425Z AUTO 03005KT 350V050 9999 OVC360 03/02 Q1029 BLU

Heure: 05:54 (04:54 UTC)


TAF: absent

Observations et prévisions météorologiques de plus de 4000 aéroports (messages METAR et TAF).

Les stations disponibles sont représentées par des disques jaunes et rouges sur la carte.

Passer la souris dessus pour voir le nom de la station.

Cliquer dessus pour voir les observations et prévisions météorologiques.

Pour changer de carte: cliquez sur les boutons verts avec une croix noire pour zoomer, sur le bouton vert avec un tiret pour effectuer un zoom arrière, ou sur les flèches vertes pour les cartes adjacentes.


METAR-TAF: